sensor_id;sensor_type;location;lat;lon;timestamp;P1;durP1;ratioP1;P2;durP2;ratioP2
6452;SDS011;3259;51.080;13.712;2023-05-10T00:02:00;0.60;;;0.60;;
6452;SDS011;3259;51.080;13.712;2023-05-10T00:04:49;0.40;;;0.40;;
6452;SDS011;3259;51.080;13.712;2023-05-10T00:07:38;0.50;;;0.50;;
6452;SDS011;3259;51.080;13.712;2023-05-10T00:10:27;0.50;;;0.40;;
6452;SDS011;3259;51.080;13.712;2023-05-10T00:13:18;1.90;;;0.50;;
6452;SDS011;3259;51.080;13.712;2023-05-10T00:16:07;0.50;;;0.50;;
6452;SDS011;3259;51.080;13.712;2023-05-10T00:18:56;2.00;;;0.47;;
6452;SDS011;3259;51.080;13.712;2023-05-10T00:21:46;0.70;;;0.70;;
6452;SDS011;3259;51.080;13.712;2023-05-10T00:24:35;0.60;;;0.60;;
6452;SDS011;3259;51.080;13.712;2023-05-10T00:27:26;0.50;;;0.50;;
6452;SDS011;3259;51.080;13.712;2023-05-10T00:30:16;0.47;;;0.47;;
6452;SDS011;3259;51.080;13.712;2023-05-10T00:33:05;0.40;;;0.40;;
6452;SDS011;3259;51.080;13.712;2023-05-10T00:35:54;0.43;;;0.43;;
6452;SDS011;3259;51.080;13.712;2023-05-10T00:38:42;0.73;;;0.68;;
6452;SDS011;3259;51.080;13.712;2023-05-10T00:41:32;0.65;;;0.50;;
6452;SDS011;3259;51.080;13.712;2023-05-10T00:44:21;2.28;;;0.50;;
6452;SDS011;3259;51.080;13.712;2023-05-10T00:47:11;0.22;;;0.22;;
6452;SDS011;3259;51.080;13.712;2023-05-10T00:50:01;0.50;;;0.50;;
6452;SDS011;3259;51.080;13.712;2023-05-10T00:52:51;1.15;;;0.50;;
6452;SDS011;3259;51.080;13.712;2023-05-10T00:55:40;0.32;;;0.32;;
6452;SDS011;3259;51.080;13.712;2023-05-10T00:58:29;1.02;;;0.50;;
6452;SDS011;3259;51.080;13.712;2023-05-10T01:01:18;0.43;;;0.38;;
6452;SDS011;3259;51.080;13.712;2023-05-10T01:04:09;0.45;;;0.40;;
6452;SDS011;3259;51.080;13.712;2023-05-10T01:06:59;0.38;;;0.38;;
6452;SDS011;3259;51.080;13.712;2023-05-10T01:09:48;0.60;;;0.60;;
6452;SDS011;3259;51.080;13.712;2023-05-10T01:12:39;0.50;;;0.50;;
6452;SDS011;3259;51.080;13.712;2023-05-10T01:15:30;1.45;;;0.40;;
6452;SDS011;3259;51.080;13.712;2023-05-10T01:18:20;0.80;;;0.40;;
6452;SDS011;3259;51.080;13.712;2023-05-10T01:21:14;0.70;;;0.38;;
6452;SDS011;3259;51.080;13.712;2023-05-10T01:24:16;0.45;;;0.45;;
6452;SDS011;3259;51.080;13.712;2023-05-10T01:27:28;0.47;;;0.40;;
6452;SDS011;3259;51.080;13.712;2023-05-10T01:30:53;0.63;;;0.63;;
6452;SDS011;3259;51.080;13.712;2023-05-10T01:34:08;1.35;;;0.57;;
6452;SDS011;3259;51.080;13.712;2023-05-10T01:37:02;0.68;;;0.30;;
6452;SDS011;3259;51.080;13.712;2023-05-10T01:39:55;0.55;;;0.55;;
6452;SDS011;3259;51.080;13.712;2023-05-10T01:42:51;0.30;;;0.30;;
6452;SDS011;3259;51.080;13.712;2023-05-10T01:45:50;2.75;;;0.63;;
6452;SDS011;3259;51.080;13.712;2023-05-10T01:48:51;3.85;;;0.30;;
6452;SDS011;3259;51.080;13.712;2023-05-10T01:51:47;0.63;;;0.40;;
6452;SDS011;3259;51.080;13.712;2023-05-10T01:54:41;0.40;;;0.40;;
6452;SDS011;3259;51.080;13.712;2023-05-10T01:57:34;1.13;;;0.45;;
6452;SDS011;3259;51.080;13.712;2023-05-10T02:00:25;0.30;;;0.28;;
6452;SDS011;3259;51.080;13.712;2023-05-10T02:03:16;0.43;;;0.43;;
6452;SDS011;3259;51.080;13.712;2023-05-10T02:06:09;0.55;;;0.30;;
6452;SDS011;3259;51.080;13.712;2023-05-10T02:09:02;4.75;;;0.43;;
6452;SDS011;3259;51.080;13.712;2023-05-10T02:11:52;0.50;;;0.50;;
6452;SDS011;3259;51.080;13.712;2023-05-10T02:14:42;0.30;;;0.30;;
6452;SDS011;3259;51.080;13.712;2023-05-10T02:17:31;0.60;;;0.60;;
6452;SDS011;3259;51.080;13.712;2023-05-10T02:20:21;0.70;;;0.40;;
6452;SDS011;3259;51.080;13.712;2023-05-10T02:23:11;2.55;;;0.38;;
6452;SDS011;3259;51.080;13.712;2023-05-10T02:26:03;0.65;;;0.65;;
6452;SDS011;3259;51.080;13.712;2023-05-10T02:28:54;0.40;;;0.40;;
6452;SDS011;3259;51.080;13.712;2023-05-10T02:31:45;0.20;;;0.20;;
6452;SDS011;3259;51.080;13.712;2023-05-10T02:34:34;1.15;;;0.52;;
6452;SDS011;3259;51.080;13.712;2023-05-10T02:37:24;0.45;;;0.45;;
6452;SDS011;3259;51.080;13.712;2023-05-10T02:40:14;0.73;;;0.40;;
6452;SDS011;3259;51.080;13.712;2023-05-10T02:43:06;0.50;;;0.50;;
6452;SDS011;3259;51.080;13.712;2023-05-10T02:46:00;0.30;;;0.30;;
6452;SDS011;3259;51.080;13.712;2023-05-10T02:48:49;3.75;;;0.47;;
6452;SDS011;3259;51.080;13.712;2023-05-10T02:51:51;0.30;;;0.30;;
6452;SDS011;3259;51.080;13.712;2023-05-10T02:54:48;0.43;;;0.40;;
6452;SDS011;3259;51.080;13.712;2023-05-10T02:57:41;0.22;;;0.22;;
6452;SDS011;3259;51.080;13.712;2023-05-10T03:00:36;1.13;;;0.15;;
6452;SDS011;3259;51.080;13.712;2023-05-10T03:03:24;4.93;;;0.30;;
6452;SDS011;3259;51.080;13.712;2023-05-10T03:06:13;0.40;;;0.40;;
6452;SDS011;3259;51.080;13.712;2023-05-10T03:09:02;2.08;;;0.40;;
6452;SDS011;3259;51.080;13.712;2023-05-10T03:11:55;1.08;;;0.28;;
6452;SDS011;3259;51.080;13.712;2023-05-10T03:14:53;0.40;;;0.40;;
6452;SDS011;3259;51.080;13.712;2023-05-10T03:17:54;0.55;;;0.40;;
6452;SDS011;3259;51.080;13.712;2023-05-10T03:20:47;0.82;;;0.68;;
6452;SDS011;3259;51.080;13.712;2023-05-10T03:23:39;0.68;;;0.30;;
6452;SDS011;3259;51.080;13.712;2023-05-10T03:26:30;0.60;;;0.30;;
6452;SDS011;3259;51.080;13.712;2023-05-10T03:29:20;1.52;;;0.38;;
6452;SDS011;3259;51.080;13.712;2023-05-10T03:32:09;0.35;;;0.20;;
6452;SDS011;3259;51.080;13.712;2023-05-10T03:35:01;3.10;;;0.30;;
6452;SDS011;3259;51.080;13.712;2023-05-10T03:37:54;0.30;;;0.30;;
6452;SDS011;3259;51.080;13.712;2023-05-10T03:40:43;1.83;;;0.30;;
6452;SDS011;3259;51.080;13.712;2023-05-10T03:43:31;2.28;;;0.30;;
6452;SDS011;3259;51.080;13.712;2023-05-10T03:46:20;0.45;;;0.45;;
6452;SDS011;3259;51.080;13.712;2023-05-10T03:49:08;1.55;;;0.38;;
6452;SDS011;3259;51.080;13.712;2023-05-10T03:51:59;1.50;;;0.20;;
6452;SDS011;3259;51.080;13.712;2023-05-10T03:54:48;1.42;;;0.30;;
6452;SDS011;3259;51.080;13.712;2023-05-10T03:57:36;0.68;;;0.43;;
6452;SDS011;3259;51.080;13.712;2023-05-10T04:00:25;0.20;;;0.20;;
6452;SDS011;3259;51.080;13.712;2023-05-10T04:03:13;1.65;;;0.32;;
6452;SDS011;3259;51.080;13.712;2023-05-10T04:06:05;0.32;;;0.13;;
6452;SDS011;3259;51.080;13.712;2023-05-10T04:08:57;0.35;;;0.35;;
6452;SDS011;3259;51.080;13.712;2023-05-10T04:11:50;0.52;;;0.50;;
6452;SDS011;3259;51.080;13.712;2023-05-10T04:14:39;1.85;;;0.28;;
6452;SDS011;3259;51.080;13.712;2023-05-10T04:17:27;3.00;;;0.30;;
6452;SDS011;3259;51.080;13.712;2023-05-10T04:20:16;4.30;;;0.25;;
6452;SDS011;3259;51.080;13.712;2023-05-10T04:23:05;0.30;;;0.30;;
6452;SDS011;3259;51.080;13.712;2023-05-10T04:26:00;2.25;;;1.58;;
6452;SDS011;3259;51.080;13.712;2023-05-10T04:28:48;4.70;;;2.60;;
6452;SDS011;3259;51.080;13.712;2023-05-10T04:31:38;3.03;;;1.13;;
6452;SDS011;3259;51.080;13.712;2023-05-10T04:34:27;1.05;;;0.95;;
6452;SDS011;3259;51.080;13.712;2023-05-10T04:37:16;1.00;;;1.00;;
6452;SDS011;3259;51.080;13.712;2023-05-10T04:40:05;6.30;;;1.20;;
6452;SDS011;3259;51.080;13.712;2023-05-10T04:42:56;1.02;;;0.70;;
6452;SDS011;3259;51.080;13.712;2023-05-10T04:45:44;0.85;;;0.85;;
6452;SDS011;3259;51.080;13.712;2023-05-10T04:48:33;1.00;;;0.63;;
6452;SDS011;3259;51.080;13.712;2023-05-10T04:51:22;7.05;;;0.90;;
6452;SDS011;3259;51.080;13.712;2023-05-10T04:54:10;1.17;;;0.95;;
6452;SDS011;3259;51.080;13.712;2023-05-10T04:56:59;1.08;;;0.70;;
6452;SDS011;3259;51.080;13.712;2023-05-10T04:59:49;1.45;;;0.80;;
6452;SDS011;3259;51.080;13.712;2023-05-10T05:02:41;0.85;;;0.85;;
6452;SDS011;3259;51.080;13.712;2023-05-10T05:05:31;2.85;;;0.80;;
6452;SDS011;3259;51.080;13.712;2023-05-10T05:08:21;0.80;;;0.80;;
6452;SDS011;3259;51.080;13.712;2023-05-10T05:11:10;1.90;;;1.15;;
6452;SDS011;3259;51.080;13.712;2023-05-10T05:13:59;0.75;;;0.75;;
6452;SDS011;3259;51.080;13.712;2023-05-10T05:16:49;1.42;;;0.85;;
6452;SDS011;3259;51.080;13.712;2023-05-10T05:19:37;2.00;;;0.85;;
6452;SDS011;3259;51.080;13.712;2023-05-10T05:22:26;2.35;;;0.95;;
6452;SDS011;3259;51.080;13.712;2023-05-10T05:25:15;1.45;;;0.88;;
6452;SDS011;3259;51.080;13.712;2023-05-10T05:28:04;3.00;;;0.85;;
6452;SDS011;3259;51.080;13.712;2023-05-10T05:30:52;1.33;;;0.98;;
6452;SDS011;3259;51.080;13.712;2023-05-10T05:33:42;4.25;;;0.88;;
6452;SDS011;3259;51.080;13.712;2023-05-10T05:36:31;3.60;;;0.70;;
6452;SDS011;3259;51.080;13.712;2023-05-10T05:39:23;2.47;;;0.93;;
6452;SDS011;3259;51.080;13.712;2023-05-10T05:42:12;2.75;;;0.75;;
6452;SDS011;3259;51.080;13.712;2023-05-10T05:45:03;0.80;;;0.80;;
6452;SDS011;3259;51.080;13.712;2023-05-10T05:47:52;3.85;;;0.75;;
6452;SDS011;3259;51.080;13.712;2023-05-10T05:50:42;0.82;;;0.80;;
6452;SDS011;3259;51.080;13.712;2023-05-10T05:53:32;4.85;;;1.23;;
6452;SDS011;3259;51.080;13.712;2023-05-10T05:56:20;1.20;;;0.73;;
6452;SDS011;3259;51.080;13.712;2023-05-10T05:59:11;1.20;;;0.80;;
6452;SDS011;3259;51.080;13.712;2023-05-10T06:01:59;4.07;;;1.40;;
6452;SDS011;3259;51.080;13.712;2023-05-10T06:04:48;1.63;;;0.80;;
6452;SDS011;3259;51.080;13.712;2023-05-10T06:07:38;4.45;;;1.17;;
6452;SDS011;3259;51.080;13.712;2023-05-10T06:10:28;2.53;;;1.50;;
6452;SDS011;3259;51.080;13.712;2023-05-10T06:13:18;6.70;;;2.20;;
6452;SDS011;3259;51.080;13.712;2023-05-10T06:16:07;7.28;;;1.75;;
6452;SDS011;3259;51.080;13.712;2023-05-10T06:18:56;11.07;;;1.83;;
6452;SDS011;3259;51.080;13.712;2023-05-10T06:21:45;2.92;;;1.50;;
6452;SDS011;3259;51.080;13.712;2023-05-10T06:24:37;1.75;;;1.02;;
6452;SDS011;3259;51.080;13.712;2023-05-10T06:27:26;4.47;;;1.35;;
6452;SDS011;3259;51.080;13.712;2023-05-10T06:30:15;2.13;;;0.98;;
6452;SDS011;3259;51.080;13.712;2023-05-10T06:33:03;8.23;;;1.40;;
6452;SDS011;3259;51.080;13.712;2023-05-10T06:35:52;5.43;;;1.73;;
6452;SDS011;3259;51.080;13.712;2023-05-10T06:38:41;6.18;;;0.95;;
6452;SDS011;3259;51.080;13.712;2023-05-10T06:41:32;7.30;;;0.88;;
6452;SDS011;3259;51.080;13.712;2023-05-10T06:44:20;1.75;;;1.00;;
6452;SDS011;3259;51.080;13.712;2023-05-10T06:47:09;1.73;;;0.68;;
6452;SDS011;3259;51.080;13.712;2023-05-10T06:49:58;7.25;;;1.75;;
6452;SDS011;3259;51.080;13.712;2023-05-10T06:52:47;2.47;;;1.17;;
6452;SDS011;3259;51.080;13.712;2023-05-10T06:55:39;3.88;;;1.10;;
6452;SDS011;3259;51.080;13.712;2023-05-10T06:58:29;2.13;;;0.90;;
6452;SDS011;3259;51.080;13.712;2023-05-10T07:01:19;3.05;;;1.02;;
6452;SDS011;3259;51.080;13.712;2023-05-10T07:04:08;2.20;;;0.77;;
6452;SDS011;3259;51.080;13.712;2023-05-10T07:06:56;5.35;;;0.80;;
6452;SDS011;3259;51.080;13.712;2023-05-10T07:09:45;1.65;;;1.15;;
6452;SDS011;3259;51.080;13.712;2023-05-10T07:12:34;2.40;;;0.90;;
6452;SDS011;3259;51.080;13.712;2023-05-10T07:15:24;1.27;;;1.17;;
6452;SDS011;3259;51.080;13.712;2023-05-10T07:18:13;2.33;;;1.30;;
6452;SDS011;3259;51.080;13.712;2023-05-10T07:21:02;6.22;;;1.15;;
6452;SDS011;3259;51.080;13.712;2023-05-10T07:23:50;1.50;;;1.20;;
6452;SDS011;3259;51.080;13.712;2023-05-10T07:26:39;1.60;;;1.17;;
6452;SDS011;3259;51.080;13.712;2023-05-10T07:29:28;2.10;;;0.90;;
6452;SDS011;3259;51.080;13.712;2023-05-10T07:32:18;1.10;;;0.80;;
6452;SDS011;3259;51.080;13.712;2023-05-10T07:35:07;1.05;;;1.05;;
6452;SDS011;3259;51.080;13.712;2023-05-10T07:37:56;3.90;;;0.75;;
6452;SDS011;3259;51.080;13.712;2023-05-10T07:40:45;0.90;;;0.90;;
6452;SDS011;3259;51.080;13.712;2023-05-10T07:43:34;3.88;;;1.30;;
6452;SDS011;3259;51.080;13.712;2023-05-10T07:46:23;1.17;;;1.17;;
6452;SDS011;3259;51.080;13.712;2023-05-10T07:49:13;3.83;;;1.20;;
6452;SDS011;3259;51.080;13.712;2023-05-10T07:52:02;1.02;;;0.95;;
6452;SDS011;3259;51.080;13.712;2023-05-10T07:54:51;1.88;;;1.23;;
6452;SDS011;3259;51.080;13.712;2023-05-10T07:57:41;2.58;;;1.00;;
6452;SDS011;3259;51.080;13.712;2023-05-10T08:00:30;3.47;;;1.63;;
6452;SDS011;3259;51.080;13.712;2023-05-10T08:03:19;1.85;;;0.93;;
6452;SDS011;3259;51.080;13.712;2023-05-10T08:06:10;1.70;;;1.20;;
6452;SDS011;3259;51.080;13.712;2023-05-10T08:08:59;0.90;;;0.88;;
6452;SDS011;3259;51.080;13.712;2023-05-10T08:11:48;1.13;;;0.75;;
6452;SDS011;3259;51.080;13.712;2023-05-10T08:14:37;1.35;;;0.90;;
6452;SDS011;3259;51.080;13.712;2023-05-10T08:17:25;3.33;;;1.20;;
6452;SDS011;3259;51.080;13.712;2023-05-10T08:20:14;1.45;;;1.33;;
6452;SDS011;3259;51.080;13.712;2023-05-10T08:23:06;2.20;;;1.30;;
6452;SDS011;3259;51.080;13.712;2023-05-10T08:25:55;1.13;;;1.13;;
6452;SDS011;3259;51.080;13.712;2023-05-10T08:28:44;2.95;;;1.10;;
6452;SDS011;3259;51.080;13.712;2023-05-10T08:31:33;1.85;;;1.33;;
6452;SDS011;3259;51.080;13.712;2023-05-10T08:34:21;3.22;;;1.65;;
6452;SDS011;3259;51.080;13.712;2023-05-10T08:37:10;15.48;;;4.03;;
6452;SDS011;3259;51.080;13.712;2023-05-10T08:40:01;8.85;;;3.28;;
6452;SDS011;3259;51.080;13.712;2023-05-10T08:42:51;3.17;;;2.28;;
6452;SDS011;3259;51.080;13.712;2023-05-10T08:45:44;5.57;;;1.67;;
6452;SDS011;3259;51.080;13.712;2023-05-10T08:48:33;2.30;;;1.42;;
6452;SDS011;3259;51.080;13.712;2023-05-10T08:51:23;1.50;;;1.40;;
6452;SDS011;3259;51.080;13.712;2023-05-10T08:54:14;3.17;;;1.90;;
6452;SDS011;3259;51.080;13.712;2023-05-10T08:57:07;1.20;;;1.20;;
6452;SDS011;3259;51.080;13.712;2023-05-10T08:59:56;1.60;;;1.40;;
6452;SDS011;3259;51.080;13.712;2023-05-10T09:02:44;2.15;;;1.70;;
6452;SDS011;3259;51.080;13.712;2023-05-10T09:05:36;3.47;;;1.75;;
6452;SDS011;3259;51.080;13.712;2023-05-10T09:08:25;2.97;;;1.13;;
6452;SDS011;3259;51.080;13.712;2023-05-10T09:11:14;1.40;;;1.30;;
6452;SDS011;3259;51.080;13.712;2023-05-10T09:14:04;1.77;;;1.30;;
6452;SDS011;3259;51.080;13.712;2023-05-10T09:16:53;1.27;;;1.17;;
6452;SDS011;3259;51.080;13.712;2023-05-10T09:19:42;1.52;;;1.38;;
6452;SDS011;3259;51.080;13.712;2023-05-10T09:22:32;2.25;;;1.48;;
6452;SDS011;3259;51.080;13.712;2023-05-10T09:25:21;1.20;;;1.20;;
6452;SDS011;3259;51.080;13.712;2023-05-10T09:28:10;3.20;;;1.80;;
6452;SDS011;3259;51.080;13.712;2023-05-10T09:31:01;1.85;;;1.45;;
6452;SDS011;3259;51.080;13.712;2023-05-10T09:33:49;1.40;;;1.30;;
6452;SDS011;3259;51.080;13.712;2023-05-10T09:36:49;1.13;;;1.10;;
6452;SDS011;3259;51.080;13.712;2023-05-10T09:39:39;1.35;;;1.27;;
6452;SDS011;3259;51.080;13.712;2023-05-10T09:42:27;2.38;;;0.93;;
6452;SDS011;3259;51.080;13.712;2023-05-10T09:45:16;1.33;;;1.30;;
6452;SDS011;3259;51.080;13.712;2023-05-10T09:48:06;1.60;;;1.45;;
6452;SDS011;3259;51.080;13.712;2023-05-10T09:50:58;1.48;;;1.38;;
6452;SDS011;3259;51.080;13.712;2023-05-10T09:53:47;1.80;;;1.20;;
6452;SDS011;3259;51.080;13.712;2023-05-10T09:56:37;1.80;;;1.70;;
6452;SDS011;3259;51.080;13.712;2023-05-10T09:59:27;1.30;;;1.17;;
6452;SDS011;3259;51.080;13.712;2023-05-10T10:02:18;2.30;;;1.98;;
6452;SDS011;3259;51.080;13.712;2023-05-10T10:05:09;1.80;;;1.70;;
6452;SDS011;3259;51.080;13.712;2023-05-10T10:08:00;1.90;;;1.40;;
6452;SDS011;3259;51.080;13.712;2023-05-10T10:10:51;1.65;;;1.55;;
6452;SDS011;3259;51.080;13.712;2023-05-10T10:13:39;2.55;;;1.40;;
6452;SDS011;3259;51.080;13.712;2023-05-10T10:16:28;4.28;;;1.50;;
6452;SDS011;3259;51.080;13.712;2023-05-10T10:19:18;1.58;;;1.30;;
6452;SDS011;3259;51.080;13.712;2023-05-10T10:22:11;2.38;;;1.88;;
6452;SDS011;3259;51.080;13.712;2023-05-10T10:24:59;1.63;;;1.48;;
6452;SDS011;3259;51.080;13.712;2023-05-10T10:27:53;1.63;;;1.52;;
6452;SDS011;3259;51.080;13.712;2023-05-10T10:30:53;1.65;;;1.55;;
6452;SDS011;3259;51.080;13.712;2023-05-10T10:33:51;2.63;;;1.80;;
6452;SDS011;3259;51.080;13.712;2023-05-10T10:36:47;3.00;;;1.92;;
6452;SDS011;3259;51.080;13.712;2023-05-10T10:39:37;4.63;;;1.52;;
6452;SDS011;3259;51.080;13.712;2023-05-10T10:42:44;1.77;;;1.63;;
6452;SDS011;3259;51.080;13.712;2023-05-10T10:45:33;1.40;;;1.30;;
6452;SDS011;3259;51.080;13.712;2023-05-10T10:48:22;1.70;;;1.60;;
6452;SDS011;3259;51.080;13.712;2023-05-10T10:51:11;1.60;;;1.50;;
6452;SDS011;3259;51.080;13.712;2023-05-10T10:54:08;1.75;;;1.65;;
6452;SDS011;3259;51.080;13.712;2023-05-10T10:57:11;1.58;;;1.48;;
6452;SDS011;3259;51.080;13.712;2023-05-10T11:00:19;2.25;;;1.30;;
6452;SDS011;3259;51.080;13.712;2023-05-10T11:03:09;2.13;;;1.42;;
6452;SDS011;3259;51.080;13.712;2023-05-10T11:06:04;1.63;;;1.50;;
6452;SDS011;3259;51.080;13.712;2023-05-10T11:08:54;1.65;;;1.55;;
6452;SDS011;3259;51.080;13.712;2023-05-10T11:11:50;1.40;;;1.40;;
6452;SDS011;3259;51.080;13.712;2023-05-10T11:14:43;1.67;;;1.50;;
6452;SDS011;3259;51.080;13.712;2023-05-10T11:17:38;1.52;;;1.42;;
6452;SDS011;3259;51.080;13.712;2023-05-10T11:20:27;1.75;;;1.65;;
6452;SDS011;3259;51.080;13.712;2023-05-10T11:23:19;1.58;;;1.48;;
6452;SDS011;3259;51.080;13.712;2023-05-10T11:26:08;1.65;;;1.63;;
6452;SDS011;3259;51.080;13.712;2023-05-10T11:28:57;3.55;;;1.60;;
6452;SDS011;3259;51.080;13.712;2023-05-10T11:31:49;1.55;;;1.45;;
6452;SDS011;3259;51.080;13.712;2023-05-10T11:34:38;1.98;;;1.48;;
6452;SDS011;3259;51.080;13.712;2023-05-10T11:37:29;2.35;;;1.40;;
6452;SDS011;3259;51.080;13.712;2023-05-10T11:40:21;2.00;;;1.90;;
6452;SDS011;3259;51.080;13.712;2023-05-10T11:43:11;2.42;;;1.77;;
6452;SDS011;3259;51.080;13.712;2023-05-10T11:46:00;1.40;;;1.27;;
6452;SDS011;3259;51.080;13.712;2023-05-10T11:48:52;7.07;;;1.50;;
6452;SDS011;3259;51.080;13.712;2023-05-10T11:51:42;2.13;;;1.92;;
6452;SDS011;3259;51.080;13.712;2023-05-10T11:54:31;1.70;;;1.60;;
6452;SDS011;3259;51.080;13.712;2023-05-10T11:57:25;3.13;;;1.55;;
6452;SDS011;3259;51.080;13.712;2023-05-10T12:00:15;2.22;;;2.03;;
6452;SDS011;3259;51.080;13.712;2023-05-10T12:03:04;1.77;;;1.67;;
6452;SDS011;3259;51.080;13.712;2023-05-10T12:05:55;1.92;;;1.83;;
6452;SDS011;3259;51.080;13.712;2023-05-10T12:08:47;2.97;;;1.60;;
6452;SDS011;3259;51.080;13.712;2023-05-10T12:11:39;3.38;;;1.88;;
6452;SDS011;3259;51.080;13.712;2023-05-10T12:14:33;2.45;;;1.52;;
6452;SDS011;3259;51.080;13.712;2023-05-10T12:17:27;2.05;;;1.95;;
6452;SDS011;3259;51.080;13.712;2023-05-10T12:20:17;1.83;;;1.52;;
6452;SDS011;3259;51.080;13.712;2023-05-10T12:23:09;2.40;;;1.45;;
6452;SDS011;3259;51.080;13.712;2023-05-10T12:26:03;1.85;;;1.70;;
6452;SDS011;3259;51.080;13.712;2023-05-10T12:28:52;4.47;;;2.45;;
6452;SDS011;3259;51.080;13.712;2023-05-10T12:31:51;1.60;;;1.58;;
6452;SDS011;3259;51.080;13.712;2023-05-10T12:34:41;3.92;;;1.60;;
6452;SDS011;3259;51.080;13.712;2023-05-10T12:37:31;2.42;;;2.03;;
6452;SDS011;3259;51.080;13.712;2023-05-10T12:40:24;3.03;;;1.45;;
6452;SDS011;3259;51.080;13.712;2023-05-10T12:43:14;1.95;;;1.60;;
6452;SDS011;3259;51.080;13.712;2023-05-10T12:46:06;4.10;;;2.05;;
6452;SDS011;3259;51.080;13.712;2023-05-10T12:48:57;2.50;;;1.70;;
6452;SDS011;3259;51.080;13.712;2023-05-10T12:51:55;3.65;;;1.90;;
6452;SDS011;3259;51.080;13.712;2023-05-10T12:54:45;1.90;;;1.80;;
6452;SDS011;3259;51.080;13.712;2023-05-10T12:57:37;1.48;;;1.45;;
6452;SDS011;3259;51.080;13.712;2023-05-10T13:00:25;2.17;;;1.58;;
6452;SDS011;3259;51.080;13.712;2023-05-10T13:03:14;2.63;;;1.95;;
6452;SDS011;3259;51.080;13.712;2023-05-10T13:06:03;1.60;;;1.25;;
6452;SDS011;3259;51.080;13.712;2023-05-10T13:08:53;1.50;;;1.50;;
6452;SDS011;3259;51.080;13.712;2023-05-10T13:11:44;1.25;;;1.25;;
6452;SDS011;3259;51.080;13.712;2023-05-10T13:14:35;1.73;;;1.63;;
6452;SDS011;3259;51.080;13.712;2023-05-10T13:17:25;1.88;;;1.70;;
6452;SDS011;3259;51.080;13.712;2023-05-10T13:20:14;1.02;;;1.02;;
6452;SDS011;3259;51.080;13.712;2023-05-10T13:23:03;1.63;;;1.52;;
6452;SDS011;3259;51.080;13.712;2023-05-10T13:25:52;1.48;;;1.35;;
6452;SDS011;3259;51.080;13.712;2023-05-10T13:28:41;4.78;;;2.22;;
6452;SDS011;3259;51.080;13.712;2023-05-10T13:31:31;2.75;;;1.50;;
6452;SDS011;3259;51.080;13.712;2023-05-10T13:34:20;4.95;;;1.85;;
6452;SDS011;3259;51.080;13.712;2023-05-10T13:37:09;1.73;;;1.63;;
6452;SDS011;3259;51.080;13.712;2023-05-10T13:39:59;2.00;;;1.65;;
6452;SDS011;3259;51.080;13.712;2023-05-10T13:42:48;2.78;;;2.15;;
6452;SDS011;3259;51.080;13.712;2023-05-10T13:45:37;5.30;;;2.15;;
6452;SDS011;3259;51.080;13.712;2023-05-10T13:48:28;2.30;;;2.10;;
6452;SDS011;3259;51.080;13.712;2023-05-10T13:51:16;2.33;;;2.13;;
6452;SDS011;3259;51.080;13.712;2023-05-10T13:54:05;2.67;;;2.22;;
6452;SDS011;3259;51.080;13.712;2023-05-10T13:56:59;1.92;;;1.63;;
6452;SDS011;3259;51.080;13.712;2023-05-10T13:59:49;5.38;;;1.77;;
6452;SDS011;3259;51.080;13.712;2023-05-10T14:02:43;3.63;;;1.85;;
6452;SDS011;3259;51.080;13.712;2023-05-10T14:05:33;5.72;;;2.63;;
6452;SDS011;3259;51.080;13.712;2023-05-10T14:08:22;7.88;;;2.05;;
6452;SDS011;3259;51.080;13.712;2023-05-10T14:11:13;3.80;;;1.70;;
6452;SDS011;3259;51.080;13.712;2023-05-10T14:14:04;1.90;;;1.73;;
6452;SDS011;3259;51.080;13.712;2023-05-10T14:16:54;5.07;;;2.40;;
6452;SDS011;3259;51.080;13.712;2023-05-10T14:19:43;5.35;;;1.63;;
6452;SDS011;3259;51.080;13.712;2023-05-10T14:22:33;7.47;;;1.77;;
6452;SDS011;3259;51.080;13.712;2023-05-10T14:25:22;3.35;;;1.60;;
6452;SDS011;3259;51.080;13.712;2023-05-10T14:28:11;1.60;;;1.50;;
6452;SDS011;3259;51.080;13.712;2023-05-10T14:31:01;2.40;;;1.60;;
6452;SDS011;3259;51.080;13.712;2023-05-10T14:33:52;2.40;;;1.80;;
6452;SDS011;3259;51.080;13.712;2023-05-10T14:36:41;3.83;;;1.83;;
6452;SDS011;3259;51.080;13.712;2023-05-10T14:39:32;2.25;;;1.98;;
6452;SDS011;3259;51.080;13.712;2023-05-10T14:42:21;4.28;;;2.00;;
6452;SDS011;3259;51.080;13.712;2023-05-10T14:45:10;1.73;;;1.63;;
6452;SDS011;3259;51.080;13.712;2023-05-10T14:48:02;3.97;;;2.03;;
6452;SDS011;3259;51.080;13.712;2023-05-10T14:50:52;2.28;;;1.50;;
6452;SDS011;3259;51.080;13.712;2023-05-10T14:53:41;2.65;;;2.00;;
6452;SDS011;3259;51.080;13.712;2023-05-10T14:56:32;1.92;;;1.83;;
6452;SDS011;3259;51.080;13.712;2023-05-10T14:59:21;1.70;;;1.60;;
6452;SDS011;3259;51.080;13.712;2023-05-10T15:02:10;1.88;;;1.42;;
6452;SDS011;3259;51.080;13.712;2023-05-10T15:04:59;9.18;;;2.03;;
6452;SDS011;3259;51.080;13.712;2023-05-10T15:07:49;2.47;;;1.65;;
6452;SDS011;3259;51.080;13.712;2023-05-10T15:10:38;3.55;;;2.03;;
6452;SDS011;3259;51.080;13.712;2023-05-10T15:13:29;6.38;;;2.33;;
6452;SDS011;3259;51.080;13.712;2023-05-10T15:16:19;46.97;;;3.75;;
6452;SDS011;3259;51.080;13.712;2023-05-10T15:19:08;44.83;;;3.20;;
6452;SDS011;3259;51.080;13.712;2023-05-10T15:21:57;58.88;;;4.95;;
6452;SDS011;3259;51.080;13.712;2023-05-10T15:24:48;22.00;;;2.83;;
6452;SDS011;3259;51.080;13.712;2023-05-10T15:27:37;84.60;;;6.72;;
6452;SDS011;3259;51.080;13.712;2023-05-10T15:30:27;26.55;;;2.78;;
6452;SDS011;3259;51.080;13.712;2023-05-10T15:33:18;38.03;;;3.10;;
6452;SDS011;3259;51.080;13.712;2023-05-10T15:36:07;14.00;;;2.15;;
6452;SDS011;3259;51.080;13.712;2023-05-10T15:38:56;12.20;;;2.15;;
6452;SDS011;3259;51.080;13.712;2023-05-10T15:41:45;4.57;;;1.02;;
6452;SDS011;3259;51.080;13.712;2023-05-10T15:44:35;7.43;;;1.58;;
6452;SDS011;3259;51.080;13.712;2023-05-10T15:47:26;58.35;;;4.70;;
6452;SDS011;3259;51.080;13.712;2023-05-10T15:50:15;16.13;;;2.22;;
6452;SDS011;3259;51.080;13.712;2023-05-10T15:53:04;2.65;;;1.67;;
6452;SDS011;3259;51.080;13.712;2023-05-10T15:55:53;2.40;;;1.65;;
6452;SDS011;3259;51.080;13.712;2023-05-10T15:58:42;10.10;;;1.67;;
6452;SDS011;3259;51.080;13.712;2023-05-10T16:01:31;2.95;;;1.27;;
6452;SDS011;3259;51.080;13.712;2023-05-10T16:04:22;1.70;;;1.23;;
6452;SDS011;3259;51.080;13.712;2023-05-10T16:07:11;1.83;;;1.50;;
6452;SDS011;3259;51.080;13.712;2023-05-10T16:10:04;3.60;;;1.00;;
6452;SDS011;3259;51.080;13.712;2023-05-10T16:12:53;3.45;;;1.63;;
6452;SDS011;3259;51.080;13.712;2023-05-10T16:15:42;3.47;;;1.17;;
6452;SDS011;3259;51.080;13.712;2023-05-10T16:18:31;1.23;;;1.08;;
6452;SDS011;3259;51.080;13.712;2023-05-10T16:21:21;1.55;;;1.30;;
6452;SDS011;3259;51.080;13.712;2023-05-10T16:24:11;3.67;;;1.20;;
6452;SDS011;3259;51.080;13.712;2023-05-10T16:27:00;3.13;;;1.88;;
6452;SDS011;3259;51.080;13.712;2023-05-10T16:29:51;1.90;;;1.23;;
6452;SDS011;3259;51.080;13.712;2023-05-10T16:32:41;4.25;;;1.48;;
6452;SDS011;3259;51.080;13.712;2023-05-10T16:35:30;2.97;;;1.50;;
6452;SDS011;3259;51.080;13.712;2023-05-10T16:38:20;2.95;;;1.63;;
6452;SDS011;3259;51.080;13.712;2023-05-10T16:41:09;4.63;;;1.10;;
6452;SDS011;3259;51.080;13.712;2023-05-10T16:43:58;3.78;;;2.13;;
6452;SDS011;3259;51.080;13.712;2023-05-10T16:46:47;4.82;;;2.00;;
6452;SDS011;3259;51.080;13.712;2023-05-10T16:49:38;2.47;;;1.30;;
6452;SDS011;3259;51.080;13.712;2023-05-10T16:52:27;2.90;;;1.10;;
6452;SDS011;3259;51.080;13.712;2023-05-10T16:55:19;2.85;;;1.15;;
6452;SDS011;3259;51.080;13.712;2023-05-10T16:58:12;6.28;;;1.48;;
6452;SDS011;3259;51.080;13.712;2023-05-10T17:01:00;1.15;;;1.15;;
6452;SDS011;3259;51.080;13.712;2023-05-10T17:03:49;2.00;;;1.27;;
6452;SDS011;3259;51.080;13.712;2023-05-10T17:06:38;1.63;;;1.40;;
6452;SDS011;3259;51.080;13.712;2023-05-10T17:09:27;2.70;;;1.60;;
6452;SDS011;3259;51.080;13.712;2023-05-10T17:12:17;1.23;;;1.23;;
6452;SDS011;3259;51.080;13.712;2023-05-10T17:15:07;5.43;;;1.70;;
6452;SDS011;3259;51.080;13.712;2023-05-10T17:17:57;1.35;;;1.25;;
6452;SDS011;3259;51.080;13.712;2023-05-10T17:20:46;2.65;;;1.63;;
6452;SDS011;3259;51.080;13.712;2023-05-10T17:23:36;1.17;;;1.02;;